Time;durP1;ratioP1;P1;durP2;ratioP2;P2;SDS_P1;SDS_P2;PMS_P1;PMS_P2;Temp;Humidity;BMP_temperature;BMP_pressure;BME280_temperature;BME280_humidity;BME280_pressure;Samples;Min_cycle;Max_cycle;Signal;HPM_P1;HPM_P2
2022/05/04 00:00:57;;;;;;;8.07;7.30;;;15.60;78.40;;;;;;5011088;28;20483;-78
2022/05/04 00:03:24;;;;;;;6.00;4.83;;;15.60;78.90;;;;;;5012390;28;20497;-77
2022/05/04 00:05:51;;;;;;;6.70;6.07;;;15.50;78.90;;;;;;5011198;28;20480;-77
2022/05/04 00:08:19;;;;;;;5.80;5.30;;;15.50;78.90;;;;;;5012815;28;20475;-77
2022/05/04 00:10:48;;;;;;;6.40;5.90;;;15.50;79.00;;;;;;5009886;28;20468;-77
2022/05/04 00:13:17;;;;;;;6.70;6.00;;;15.50;79.10;;;;;;4998878;28;20550;-77
2022/05/04 00:15:44;;;;;;;5.90;5.40;;;15.50;79.10;;;;;;5014081;28;20468;-77
2022/05/04 00:18:11;;;;;;;7.20;5.97;;;15.50;79.30;;;;;;5014776;28;20500;-77
2022/05/04 00:20:38;;;;;;;6.57;5.97;;;15.50;79.30;;;;;;5011045;28;20509;-77
2022/05/04 00:23:05;;;;;;;7.10;5.53;;;15.40;79.40;;;;;;5013992;28;20461;-77
2022/05/04 00:25:32;;;;;;;6.67;6.03;;;15.40;79.60;;;;;;5011906;28;20469;-77
2022/05/04 00:28:02;;;;;;;5.83;5.33;;;15.40;79.80;;;;;;5014650;28;20469;-77
2022/05/04 00:30:29;;;;;;;7.87;6.00;;;15.30;79.80;;;;;;5014746;28;20961;-78
2022/05/04 00:32:56;;;;;;;6.57;5.70;;;15.30;80.10;;;;;;5013172;28;20483;-77
2022/05/04 00:35:24;;;;;;;5.80;5.27;;;15.30;80.20;;;;;;5014173;28;20467;-77
2022/05/04 00:37:51;;;;;;;7.43;5.87;;;15.30;80.40;;;;;;5013166;28;20575;-78
2022/05/04 00:40:18;;;;;;;7.63;6.47;;;15.30;80.50;;;;;;5011896;28;20465;-77
2022/05/04 00:42:45;;;;;;;6.27;5.67;;;15.30;80.70;;;;;;5016866;28;20493;-77
2022/05/04 00:45:13;;;;;;;6.43;5.77;;;15.30;80.80;;;;;;5017955;28;20596;-77
2022/05/04 00:47:40;;;;;;;6.37;5.77;;;15.30;80.80;;;;;;5016967;28;20480;-77
2022/05/04 00:50:09;;;;;;;7.60;6.10;;;15.30;80.80;;;;;;5016541;28;20548;-77
2022/05/04 00:52:38;;;;;;;7.00;6.50;;;15.20;80.80;;;;;;5017111;28;20972;-77
2022/05/04 00:55:08;;;;;;;7.20;6.60;;;15.20;80.90;;;;;;5016506;28;20467;-76
2022/05/04 01:00:24;;;;;;;7.87;7.07;;;15.20;80.90;;;;;;5006318;28;20464;-77
2022/05/04 01:02:52;;;;;;;8.03;7.23;;;15.20;81.00;;;;;;5016072;28;20535;-77
2022/05/04 01:05:19;;;;;;;8.17;7.47;;;15.20;81.30;;;;;;5016874;28;20503;-77
2022/05/04 01:07:48;;;;;;;9.23;7.67;;;15.10;81.50;;;;;;5014767;28;20469;-77
2022/05/04 01:10:16;;;;;;;6.90;6.30;;;15.10;81.60;;;;;;5015652;28;20461;-77
2022/05/04 01:12:48;;;;;;;6.63;5.97;;;15.10;81.60;;;;;;5001158;28;20972;-77
2022/05/04 01:15:16;;;;;;;6.60;6.07;;;15.00;81.50;;;;;;5017081;28;20469;-77
2022/05/04 01:17:44;;;;;;;6.37;5.77;;;15.00;81.70;;;;;;5015098;28;20849;-77
2022/05/04 01:20:12;;;;;;;6.40;5.80;;;15.00;81.90;;;;;;5016953;28;20483;-77
2022/05/04 01:22:41;;;;;;;7.83;6.83;;;15.00;81.90;;;;;;5016421;28;20480;-77
2022/05/04 01:25:09;;;;;;;6.50;6.00;;;15.00;82.10;;;;;;5015968;28;20468;-77
2022/05/04 01:27:36;;;;;;;8.60;5.87;;;14.90;82.10;;;;;;5010609;28;20497;-77
2022/05/04 01:30:05;;;;;;;7.07;6.37;;;14.90;82.40;;;;;;5009884;28;20464;-77
2022/05/04 01:32:32;;;;;;;6.83;6.23;;;14.90;82.60;;;;;;5016604;28;20469;-77
2022/05/04 01:35:00;;;;;;;6.80;6.17;;;14.90;82.70;;;;;;5016234;28;20469;-77
2022/05/04 01:37:27;;;;;;;6.70;6.10;;;14.80;82.80;;;;;;5016562;28;20556;-77
2022/05/04 01:39:55;;;;;;;7.67;6.97;;;14.80;83.00;;;;;;5016071;28;20453;-77
2022/05/04 01:42:24;;;;;;;9.50;7.15;;;14.80;83.00;;;;;;5016059;28;20558;-77
2022/05/04 01:44:54;;;;;;;7.63;6.80;;;14.80;83.40;;;;;;5014421;28;20291;-77
2022/05/04 01:47:21;;;;;;;7.20;6.60;;;14.70;83.50;;;;;;5016058;28;20492;-77
2022/05/04 01:49:48;;;;;;;6.63;6.03;;;14.70;83.80;;;;;;5015627;28;20480;-78
2022/05/04 01:52:15;;;;;;;10.23;7.37;;;14.70;84.10;;;;;;5014283;28;20973;-77
2022/05/04 01:54:42;;;;;;;7.57;6.87;;;14.60;84.40;;;;;;5014915;28;20820;-78
2022/05/04 01:57:11;;;;;;;7.57;6.77;;;14.60;85.00;;;;;;5015897;28;20545;-78
2022/05/04 01:59:38;;;;;;;7.30;6.50;;;14.60;85.30;;;;;;5015278;28;20469;-77
2022/05/04 02:02:07;;;;;;;9.00;8.10;;;14.50;85.40;;;;;;5016046;28;20544;-78
2022/05/04 02:04:35;;;;;;;7.38;6.68;;;14.50;85.80;;;;;;5015974;28;20600;-77
2022/05/04 02:07:02;;;;;;;7.97;6.72;;;14.50;86.00;;;;;;5014993;28;20226;-77
2022/05/04 02:09:29;;;;;;;7.83;7.13;;;14.40;86.10;;;;;;5015512;28;20312;-77
2022/05/04 02:11:57;;;;;;;12.40;7.93;;;14.40;87.10;;;;;;5005647;28;20462;-77
2022/05/04 02:14:26;;;;;;;8.45;7.47;;;14.40;86.70;;;;;;5011874;28;20225;-77
2022/05/04 02:16:54;;;;;;;7.95;7.15;;;14.30;86.90;;;;;;5014246;28;20545;-77
2022/05/04 02:19:21;;;;;;;8.45;7.65;;;14.30;87.90;;;;;;5007391;28;20229;-77
2022/05/04 02:21:48;;;;;;;8.80;6.73;;;14.30;87.50;;;;;;5014787;28;20244;-77
2022/05/04 02:24:15;;;;;;;8.48;7.72;;;14.20;87.60;;;;;;5014612;28;20568;-77
2022/05/04 02:26:42;;;;;;;7.40;6.80;;;14.20;88.00;;;;;;4998659;28;20304;-77
2022/05/04 02:29:09;;;;;;;9.13;8.23;;;14.10;88.10;;;;;;5014728;28;20321;-77
2022/05/04 02:31:37;;;;;;;7.95;6.85;;;14.10;88.40;;;;;;5014811;28;20226;-77
2022/05/04 02:34:05;;;;;;;9.18;8.27;;;14.10;88.40;;;;;;5014371;28;20225;-77
2022/05/04 02:39:17;;;;;;;8.85;7.97;;;14.00;88.70;;;;;;5002847;28;20311;-77
2022/05/04 02:41:43;;;;;;;9.45;8.43;;;14.10;88.80;;;;;;5014555;28;20599;-77
2022/05/04 02:44:12;;;;;;;10.70;8.30;;;14.00;88.90;;;;;;5014124;28;20232;-77
2022/05/04 02:46:41;;;;;;;9.60;8.60;;;14.00;89.30;;;;;;5013256;28;20257;-77
2022/05/04 02:49:08;;;;;;;9.55;8.57;;;13.90;89.70;;;;;;5014321;28;20676;-77
2022/05/04 02:51:34;;;;;;;8.55;7.57;;;13.80;90.10;;;;;;5012287;28;20232;-77
2022/05/04 02:54:03;;;;;;;10.55;8.23;;;13.80;90.20;;;;;;5003141;28;20226;-77
2022/05/04 02:56:30;;;;;;;9.93;9.02;;;13.80;90.20;;;;;;5014649;28;20222;-76
2022/05/04 02:58:57;;;;;;;9.80;9.00;;;13.80;90.30;;;;;;5012643;28;20218;-77
2022/05/04 03:04:10;;;;;;;11.70;9.25;;;13.80;90.40;;;;;;5012119;28;20730;-76
2022/05/04 03:06:39;;;;;;;9.02;8.15;;;13.70;90.50;;;;;;5012872;28;20301;-77
2022/05/04 03:09:07;;;;;;;9.65;8.65;;;13.70;90.60;;;;;;5012417;28;20568;-77
2022/05/04 03:14:18;;;;;;;9.43;8.48;;;13.70;90.90;;;;;;5013252;28;20220;-77
2022/05/04 03:16:46;;;;;;;8.50;7.63;;;13.70;91.00;;;;;;5014109;28;20226;-76
2022/05/04 03:19:14;;;;;;;9.95;8.95;;;13.70;90.90;;;;;;5012163;28;20230;-77
2022/05/04 03:21:41;;;;;;;9.15;8.35;;;13.70;91.20;;;;;;5004108;28;20270;-77
2022/05/04 03:24:09;;;;;;;9.57;8.57;;;13.70;91.20;;;;;;5013334;28;20226;-77
2022/05/04 03:26:36;;;;;;;10.45;9.40;;;13.70;91.30;;;;;;5011623;28;20226;-77
2022/05/04 03:29:03;;;;;;;9.55;8.55;;;13.70;91.30;;;;;;5000090;28;20623;-77
2022/05/04 03:31:30;;;;;;;10.85;9.75;;;13.70;91.30;;;;;;5013842;28;20230;-77
2022/05/04 03:33:57;;;;;;;9.60;8.70;;;13.70;91.40;;;;;;5014140;28;20249;-77
2022/05/04 03:36:27;;;;;;;8.02;7.28;;;13.70;91.50;;;;;;5013812;28;20214;-77
2022/05/04 03:38:54;;;;;;;9.98;9.07;;;13.70;91.50;;;;;;5013639;28;20230;-78
2022/05/04 03:41:22;;;;;;;10.15;8.48;;;13.70;91.50;;;;;;5012929;28;20233;-77
2022/05/04 03:43:49;;;;;;;9.68;8.68;;;13.70;91.70;;;;;;5013787;28;20225;-79
2022/05/04 03:46:18;;;;;;;8.77;7.97;;;13.70;91.80;;;;;;5013023;28;20672;-76
2022/05/04 03:48:45;;;;;;;10.68;9.52;;;13.70;91.90;;;;;;5014467;28;20303;-76
2022/05/04 03:51:16;;;;;;;12.18;9.48;;;13.70;92.00;;;;;;5013473;28;20305;-77
2022/05/04 03:53:44;;;;;;;11.02;10.02;;;13.70;92.10;;;;;;5013706;28;20226;-77
2022/05/04 03:56:11;;;;;;;10.10;9.10;;;13.70;92.10;;;;;;5013084;28;20288;-77
2022/05/04 03:58:38;;;;;;;12.48;9.30;;;13.70;92.40;;;;;;5013887;28;20222;-77
2022/05/04 04:01:05;;;;;;;11.02;9.93;;;13.70;92.10;;;;;;5012977;28;20321;-77
2022/05/04 04:03:32;;;;;;;9.75;8.73;;;13.70;92.20;;;;;;5013853;28;20260;-77
2022/05/04 04:06:02;;;;;;;9.10;8.30;;;13.70;92.30;;;;;;5014131;28;20269;-77
2022/05/04 04:08:30;;;;;;;13.88;10.52;;;13.70;92.30;;;;;;5014328;28;20309;-76
2022/05/04 04:10:59;;;;;;;11.30;10.00;;;13.70;92.30;;;;;;5012286;28;20226;-77
2022/05/04 04:13:26;;;;;;;13.65;9.90;;;13.70;92.40;;;;;;5002135;28;20233;-77
2022/05/04 04:15:56;;;;;;;12.13;9.85;;;13.70;92.50;;;;;;5015263;28;20572;-77
2022/05/04 04:18:24;;;;;;;11.65;9.05;;;13.70;92.50;;;;;;5017257;28;20245;-77
2022/05/04 04:23:37;;;;;;;10.40;8.57;;;13.70;92.90;;;;;;5016206;28;20267;-77
2022/05/04 04:26:06;;;;;;;12.10;10.43;;;13.80;92.60;;;;;;5013929;28;20237;-77
2022/05/04 04:28:34;;;;;;;15.57;10.50;;;13.80;92.60;;;;;;5004490;28;20214;-76
2022/05/04 04:31:01;;;;;;;10.65;9.55;;;13.80;92.60;;;;;;5015483;28;20226;-77
2022/05/04 04:33:29;;;;;;;10.73;9.73;;;13.80;92.60;;;;;;5016082;28;20253;-76
2022/05/04 04:35:56;;;;;;;11.25;10.07;;;13.80;92.60;;;;;;5015809;28;20222;-76
2022/05/04 04:38:23;;;;;;;13.90;10.20;;;13.80;92.60;;;;;;5015978;28;20250;-76
2022/05/04 04:40:50;;;;;;;10.90;9.85;;;13.80;92.60;;;;;;5003730;28;20268;-76
2022/05/04 04:43:19;;;;;;;12.68;9.60;;;13.90;92.60;;;;;;5016192;28;20222;-76
2022/05/04 04:45:47;;;;;;;11.55;10.38;;;13.90;92.50;;;;;;5007843;28;20230;-76
2022/05/04 04:48:15;;;;;;;10.50;9.45;;;14.00;92.50;;;;;;5016636;28;20234;-76
2022/05/04 04:50:43;;;;;;;11.50;10.40;;;14.00;92.50;;;;;;5015429;28;20230;-75
2022/05/04 04:53:10;;;;;;;12.00;10.73;;;14.10;92.60;;;;;;5016350;28;20237;-76
2022/05/04 04:55:37;;;;;;;10.55;9.65;;;14.20;92.60;;;;;;5015688;28;20548;-76
2022/05/04 04:58:04;;;;;;;11.90;8.67;;;14.20;92.50;;;;;;5016759;28;20313;-76
2022/05/04 05:00:33;;;;;;;11.67;10.57;;;14.30;92.90;;;;;;5015853;28;20476;-76
2022/05/04 05:03:00;;;;;;;12.07;10.80;;;14.30;92.40;;;;;;5015872;28;20469;-76
2022/05/04 05:05:27;;;;;;;15.45;11.23;;;14.40;92.40;;;;;;5015429;28;20496;-76
2022/05/04 05:07:54;;;;;;;9.60;8.80;;;14.40;92.40;;;;;;5015841;28;20241;-76
2022/05/04 05:10:22;;;;;;;11.40;10.30;;;14.50;92.40;;;;;;5015571;28;20501;-76
2022/05/04 05:12:51;;;;;;;11.97;10.77;;;14.50;92.30;;;;;;5016115;28;20480;-76
2022/05/04 05:18:15;;;;;;;11.27;10.13;;;14.60;92.20;;;;;;4955727;29;20475;-76
2022/05/04 05:20:42;;;;;;;11.03;9.93;;;14.60;92.20;;;;;;4989412;28;20478;-77
2022/05/04 05:23:09;;;;;;;11.03;9.90;;;14.70;92.20;;;;;;5013599;28;20476;-77
2022/05/04 05:25:37;;;;;;;10.97;9.83;;;14.70;92.10;;;;;;5012454;28;20477;-76
2022/05/04 05:28:05;;;;;;;10.40;9.30;;;14.80;91.90;;;;;;5006132;28;20470;-76
2022/05/04 05:30:36;;;;;;;11.57;9.35;;;14.80;91.80;;;;;;5010866;28;20799;-77
2022/05/04 05:33:03;;;;;;;10.97;9.97;;;14.80;91.70;;;;;;5015496;28;20237;-77
2022/05/04 05:35:31;;;;;;;9.73;8.88;;;14.90;91.70;;;;;;5015308;28;20472;-76
2022/05/04 05:37:58;;;;;;;11.23;10.10;;;15.00;91.60;;;;;;5015671;28;20225;-76
2022/05/04 05:40:26;;;;;;;10.07;9.20;;;15.00;91.50;;;;;;5015001;28;20461;-76
2022/05/04 05:42:53;;;;;;;10.73;9.70;;;15.10;91.50;;;;;;5015347;28;20469;-78
2022/05/04 05:45:20;;;;;;;11.50;10.30;;;15.10;91.40;;;;;;5014582;28;20473;-78
2022/05/04 05:47:47;;;;;;;11.03;9.90;;;15.10;91.40;;;;;;5015687;28;20470;-77
2022/05/04 05:50:14;;;;;;;11.57;10.37;;;15.20;91.40;;;;;;5014928;28;20580;-77
2022/05/04 05:52:42;;;;;;;10.90;8.80;;;15.20;91.30;;;;;;5015539;28;20479;-76
2022/05/04 05:55:10;;;;;;;10.27;8.57;;;15.30;91.20;;;;;;5014994;28;20473;-77
2022/05/04 05:57:37;;;;;;;12.50;8.30;;;15.40;91.00;;;;;;5007211;28;20468;-77
2022/05/04 06:00:05;;;;;;;10.40;9.40;;;15.50;90.90;;;;;;5015600;28;20468;-77
2022/05/04 06:02:33;;;;;;;10.33;8.97;;;15.50;90.60;;;;;;5014629;28;20791;-77
2022/05/04 06:05:00;;;;;;;9.33;8.50;;;15.60;90.40;;;;;;5015705;28;20979;-77
2022/05/04 06:07:27;;;;;;;8.20;7.40;;;15.60;90.30;;;;;;5014871;28;20465;-77
2022/05/04 06:09:55;;;;;;;9.13;8.23;;;15.70;90.30;;;;;;5014359;28;20503;-77
2022/05/04 06:12:24;;;;;;;13.67;10.03;;;15.80;90.10;;;;;;5014616;28;20508;-77
2022/05/04 06:14:51;;;;;;;9.20;8.37;;;15.80;89.90;;;;;;5015418;28;20564;-77
2022/05/04 06:17:18;;;;;;;9.53;7.37;;;15.90;89.50;;;;;;5014338;28;20480;-76
2022/05/04 06:19:46;;;;;;;10.57;9.30;;;15.90;89.10;;;;;;5009254;28;20485;-76
2022/05/04 06:22:14;;;;;;;7.20;6.60;;;16.00;89.10;;;;;;5010052;28;20959;-77
2022/05/04 06:24:41;;;;;;;9.37;8.40;;;16.10;89.00;;;;;;5015381;28;21040;-76
2022/05/04 06:36:06;;;;;;;10.27;9.37;;;16.30;87.30;;;;;;4954319;29;20464;-77
2022/05/04 06:38:32;;;;;;;9.40;8.00;;;16.30;86.70;;;;;;5000822;28;20520;-76
2022/05/04 06:41:00;;;;;;;8.93;7.70;;;16.40;86.80;;;;;;5014081;28;20465;-76
2022/05/04 06:43:27;;;;;;;7.43;6.77;;;16.40;86.50;;;;;;5014554;28;20460;-76
2022/05/04 06:45:55;;;;;;;8.47;7.73;;;16.50;86.30;;;;;;5014263;28;20468;-76
2022/05/04 06:48:23;;;;;;;6.53;5.90;;;16.50;86.10;;;;;;5014559;28;20597;-76
2022/05/04 06:50:50;;;;;;;6.27;5.43;;;16.60;86.00;;;;;;5014554;28;20986;-76
2022/05/04 06:53:17;;;;;;;9.80;8.80;;;16.70;85.70;;;;;;5013804;28;20470;-76
2022/05/04 06:55:44;;;;;;;8.93;8.13;;;16.70;85.40;;;;;;5014531;28;20477;-77
2022/05/04 06:58:11;;;;;;;7.37;6.70;;;16.80;85.30;;;;;;5013741;28;20475;-78
2022/05/04 07:00:38;;;;;;;8.03;7.33;;;16.80;85.20;;;;;;5014001;28;20484;-78
2022/05/04 07:03:06;;;;;;;8.87;8.00;;;16.80;85.20;;;;;;5013771;28;20521;-78
2022/05/04 07:06:03;;;;;;;9.50;8.53;;;16.90;85.40;;;;;;5014806;28;20575;-77
2022/05/04 07:08:31;;;;;;;11.20;9.40;;;17.00;85.40;;;;;;4922034;29;20794;-78
2022/05/04 07:10:58;;;;;;;9.37;8.57;;;17.00;85.20;;;;;;4927841;29;20462;-76
2022/05/04 07:13:30;;;;;;;8.87;7.97;;;17.10;85.20;;;;;;4923296;29;20525;-77
2022/05/04 07:15:57;;;;;;;9.07;8.37;;;17.10;84.80;;;;;;4944393;28;20474;-77
2022/05/04 07:18:36;;;;;;;9.00;8.10;;;17.10;84.70;;;;;;5005670;28;20472;-78
2022/05/04 07:21:03;;;;;;;10.20;9.07;;;17.20;84.50;;;;;;5002329;28;20868;-78
2022/05/04 07:23:30;;;;;;;11.00;8.87;;;17.30;84.70;;;;;;5013440;28;20965;-77
2022/05/04 07:25:57;;;;;;;10.20;8.90;;;17.40;85.10;;;;;;5010120;28;20843;-77
2022/05/04 07:28:26;;;;;;;9.03;8.33;;;17.30;84.00;;;;;;5002981;28;20529;-77
2022/05/04 07:30:53;;;;;;;9.40;8.57;;;17.40;83.90;;;;;;5011524;28;20814;-77
2022/05/04 07:33:19;;;;;;;8.40;7.43;;;17.50;83.20;;;;;;5013215;28;20471;-77
2022/05/04 07:35:48;;;;;;;8.63;7.73;;;17.50;83.30;;;;;;5014186;28;20550;-77
2022/05/04 07:38:15;;;;;;;10.80;9.77;;;17.50;83.40;;;;;;5013651;28;20928;-77
2022/05/04 07:43:27;;;;;;;8.60;7.70;;;17.60;83.30;;;;;;5013924;28;21012;-77
2022/05/04 07:45:56;;;;;;;9.73;8.67;;;17.70;83.00;;;;;;5013759;28;20466;-77
2022/05/04 07:48:23;;;;;;;8.23;7.43;;;17.80;82.50;;;;;;5013257;28;20468;-77
2022/05/04 07:50:52;;;;;;;11.70;9.70;;;17.90;82.30;;;;;;5004097;28;20494;-77
2022/05/04 07:53:18;;;;;;;9.80;8.90;;;17.90;82.30;;;;;;5022312;28;20476;-77
2022/05/04 07:55:47;;;;;;;8.93;8.13;;;17.90;82.30;;;;;;5009497;28;20836;-75
2022/05/04 07:58:14;;;;;;;11.70;9.10;;;18.00;82.50;;;;;;5027501;28;20480;-78
2022/05/04 08:06:14;;;;;;;9.47;8.53;;;18.20;81.10;;;;;;5028082;28;20528;-77
2022/05/04 08:08:41;;;;;;;12.90;9.73;;;18.30;81.20;;;;;;5018093;28;20968;-76
2022/05/04 08:11:11;;;;;;;8.07;7.30;;;18.40;80.70;;;;;;5017176;28;20552;-78
2022/05/04 08:13:41;;;;;;;7.57;6.97;;;18.40;80.20;;;;;;4994138;28;20501;-77
2022/05/04 08:16:10;;;;;;;6.57;5.97;;;18.50;79.70;;;;;;5014773;28;20465;-78
2022/05/04 08:18:40;;;;;;;7.90;6.77;;;18.60;79.60;;;;;;5017151;28;20476;-78
2022/05/04 08:21:08;;;;;;;9.67;8.67;;;18.70;79.40;;;;;;5005023;28;20534;-78
2022/05/04 08:23:37;;;;;;;9.53;7.37;;;18.70;78.40;;;;;;5015174;28;20472;-78
2022/05/04 08:26:05;;;;;;;7.43;6.73;;;18.70;77.70;;;;;;5011885;28;20564;-77
2022/05/04 08:28:32;;;;;;;9.17;6.77;;;18.80;77.60;;;;;;5006018;28;20548;-76
2022/05/04 08:30:59;;;;;;;6.90;6.33;;;18.80;77.10;;;;;;5016314;28;20473;-77
2022/05/04 08:33:26;;;;;;;10.13;7.10;;;18.90;76.40;;;;;;5017471;28;20458;-76
2022/05/04 08:35:56;;;;;;;8.50;7.40;;;19.00;74.90;;;;;;5017228;28;20481;-76
2022/05/04 08:41:29;;;;;;;5.77;5.20;;;19.10;74.70;;;;;;5011514;22;20891;-76
2022/05/04 08:43:59;;;;;;;5.23;4.83;;;19.20;75.20;;;;;;5025737;28;20472;-77
2022/05/04 08:46:28;;;;;;;7.43;6.57;;;19.30;75.20;;;;;;5013763;28;20571;-77
2022/05/04 08:48:57;;;;;;;7.20;6.13;;;19.40;74.60;;;;;;5026497;28;20460;-77
2022/05/04 08:51:24;;;;;;;6.00;5.50;;;19.50;73.90;;;;;;5032228;28;20499;-77
2022/05/04 08:53:51;;;;;;;6.40;5.90;;;19.50;73.60;;;;;;5036374;28;20488;-77
2022/05/04 08:56:18;;;;;;;7.20;5.27;;;19.40;72.50;;;;;;5036841;28;20502;-77
2022/05/04 08:58:49;;;;;;;5.37;4.90;;;19.40;72.50;;;;;;5036624;28;20551;-77
2022/05/04 09:01:16;;;;;;;6.17;5.57;;;19.50;71.70;;;;;;5035479;28;20487;-77
2022/05/04 09:03:43;;;;;;;5.50;5.10;;;19.50;71.80;;;;;;5015582;28;20540;-78
2022/05/04 09:06:10;;;;;;;5.97;5.47;;;19.50;71.50;;;;;;5034210;28;20482;-78
2022/05/04 09:08:55;;;;;;;5.43;4.90;;;19.50;71.40;;;;;;5026636;28;20472;-77
2022/05/04 09:11:28;;;;;;;5.07;4.60;;;19.50;71.30;;;;;;5023334;28;20496;-77
2022/05/04 09:13:58;;;;;;;5.33;4.83;;;19.50;70.60;;;;;;5023302;28;20495;-77
2022/05/04 09:16:27;;;;;;;7.20;6.60;;;19.50;70.60;;;;;;5023534;28;20954;-78
2022/05/04 09:19:08;;;;;;;7.20;5.73;;;19.40;70.20;;;;;;5020784;28;20961;-77
2022/05/04 09:25:24;;;;;;;;;;;;;;;;;;;;;
2022/05/04 09:28:37;;;;;;;4.87;4.47;;;19.60;69.70;;;;;;4871695;29;20482;-76
2022/05/04 09:31:10;;;;;;;11.13;5.90;;;19.60;69.50;;;;;;4897217;29;20501;-76
2022/05/04 09:34:26;;;;;;;6.20;5.27;;;19.70;70.00;;;;;;4908655;29;20477;-76
2022/05/04 09:45:11;;;;;;;9.77;7.30;;;20.00;70.10;;;;;;5035409;28;20570;-77
2022/05/04 09:51:07;;;;;;;6.23;5.63;;;20.00;69.20;;;;;;5097386;23;20473;-77
2022/05/04 09:53:36;;;;;;;5.43;5.03;;;20.10;69.20;;;;;;5001126;28;20473;-77
2022/05/04 10:02:17;;;;;;;;;;;;;;;;;;;;;
2022/05/04 10:08:03;;;;;;;7.20;6.60;;;20.20;68.30;;;;;;4877746;29;20516;-76
2022/05/04 10:28:00;;;;;;;6.40;5.80;;;20.50;67.30;;;;;;4815492;29;20482;-77
2022/05/04 10:38:27;;;;;;;;;;;;;;;;;;;;;
2022/05/04 10:44:41;;;;;;;7.33;5.87;;;20.60;65.80;;;;;;4833138;29;20810;-77
2022/05/04 10:47:08;;;;;;;8.33;5.97;;;20.70;65.20;;;;;;4935625;29;20461;-75
2022/05/04 10:49:36;;;;;;;6.83;6.13;;;20.60;65.40;;;;;;4934399;29;20817;-75
2022/05/04 11:03:12;;;;;;;6.27;5.13;;;20.50;63.80;;;;;;4775788;30;20501;-77
2022/05/04 11:13:53;;;;;;;7.00;6.17;;;20.50;65.10;;;;;;4655192;29;20468;-76
2022/05/04 11:19:36;;;;;;;6.57;5.73;;;20.50;65.70;;;;;;4896628;29;20818;-76
2022/05/04 11:22:04;;;;;;;5.80;5.30;;;20.50;65.40;;;;;;4933439;29;20529;-77
2022/05/04 11:24:35;;;;;;;12.13;6.37;;;20.60;65.20;;;;;;4933886;29;20480;-76
2022/05/04 11:27:02;;;;;;;6.37;4.77;;;20.60;64.70;;;;;;4934638;29;20483;-76
2022/05/04 11:29:33;;;;;;;9.00;5.70;;;20.70;65.00;;;;;;4938752;28;20543;-76
2022/05/04 11:32:10;;;;;;;7.40;6.60;;;20.80;65.30;;;;;;5027819;28;20936;-76
2022/05/04 11:34:41;;;;;;;8.30;7.50;;;20.80;65.30;;;;;;5033238;28;20462;-77
2022/05/04 11:37:14;;;;;;;6.50;5.90;;;20.80;63.60;;;;;;5027897;28;20801;-77
2022/05/04 11:39:42;;;;;;;6.37;5.77;;;20.80;63.70;;;;;;5021205;28;20497;-77
2022/05/04 11:42:10;;;;;;;4.67;4.10;;;20.80;63.60;;;;;;5028550;28;20569;-77
2022/05/04 11:44:42;;;;;;;7.87;5.80;;;20.90;63.60;;;;;;5029135;28;20471;-77
2022/05/04 11:47:10;;;;;;;8.30;5.70;;;20.80;63.20;;;;;;5027614;28;20485;-77
2022/05/04 11:49:40;;;;;;;6.57;5.87;;;20.70;62.90;;;;;;5027829;28;20470;-78
2022/05/04 11:52:08;;;;;;;6.17;5.57;;;20.80;63.10;;;;;;5028520;28;20484;-77
2022/05/04 11:54:35;;;;;;;7.77;5.97;;;20.70;62.60;;;;;;5027768;28;20826;-77
2022/05/04 11:57:02;;;;;;;7.33;5.27;;;20.70;62.80;;;;;;5028717;28;20461;-78
2022/05/04 11:59:30;;;;;;;6.27;5.10;;;20.70;62.80;;;;;;5032783;28;20464;-75
2022/05/04 12:01:59;;;;;;;6.90;6.10;;;20.70;63.20;;;;;;5032832;28;20492;-76
2022/05/04 12:04:27;;;;;;;4.83;4.40;;;20.60;64.10;;;;;;5028278;28;20551;-75
2022/05/04 12:06:55;;;;;;;5.50;5.00;;;20.70;64.50;;;;;;5032452;28;20465;-76
2022/05/04 12:09:22;;;;;;;5.47;5.00;;;20.60;64.40;;;;;;5032560;28;20540;-75
2022/05/04 12:11:49;;;;;;;6.50;5.53;;;20.60;63.90;;;;;;5032349;28;20486;-75
2022/05/04 12:14:17;;;;;;;6.77;5.90;;;20.70;62.90;;;;;;5029990;28;20464;-75
2022/05/04 12:16:44;;;;;;;21.07;17.30;;;20.70;62.70;;;;;;5031408;28;20519;-77
2022/05/04 12:19:13;;;;;;;8.57;7.23;;;20.80;62.60;;;;;;5027293;28;20484;-77
2022/05/04 12:21:41;;;;;;;5.60;5.13;;;20.80;62.20;;;;;;5027476;28;20466;-76
2022/05/04 12:24:09;;;;;;;7.60;6.80;;;20.90;61.50;;;;;;5031118;28;21173;-76
2022/05/04 12:26:38;;;;;;;6.47;5.23;;;20.90;61.70;;;;;;5028077;28;20478;-76
2022/05/04 12:34:36;;;;;;;5.77;5.13;;;21.00;60.90;;;;;;5023676;28;20808;-76
2022/05/04 12:37:06;;;;;;;5.43;4.90;;;21.00;60.80;;;;;;5026408;28;20497;-75
2022/05/04 12:39:34;;;;;;;4.90;4.40;;;21.00;61.20;;;;;;5026977;28;20478;-75
2022/05/04 12:42:01;;;;;;;6.00;5.00;;;21.00;60.10;;;;;;5035108;28;20463;-76
2022/05/04 12:44:33;;;;;;;7.60;5.83;;;21.10;60.10;;;;;;5036109;28;20464;-76
2022/05/04 12:47:02;;;;;;;9.10;4.40;;;21.20;60.00;;;;;;5033996;28;20538;-78
2022/05/04 12:49:29;;;;;;;6.10;5.07;;;21.30;60.00;;;;;;5035946;28;20470;-78
2022/05/04 12:51:58;;;;;;;8.10;4.83;;;21.40;59.80;;;;;;5027147;28;20471;-78
2022/05/04 12:54:25;;;;;;;5.50;5.00;;;21.40;59.20;;;;;;5010851;28;20518;-78
2022/05/04 12:56:51;;;;;;;6.57;5.87;;;21.40;58.90;;;;;;5029945;28;20789;-78
2022/05/04 12:59:20;;;;;;;5.70;5.30;;;21.40;59.20;;;;;;5032710;28;20532;-76
2022/05/04 13:01:47;;;;;;;6.57;5.90;;;21.50;59.80;;;;;;5028094;28;20534;-78
2022/05/04 13:04:15;;;;;;;6.70;5.73;;;21.50;59.40;;;;;;5035659;28;20462;-76
2022/05/04 13:06:52;;;;;;;;;;;;;;;;;;;;;
2022/05/04 13:09:21;;;;;;;8.67;7.80;;;21.50;59.60;;;;;;5025863;28;20470;-76
2022/05/04 13:11:48;;;;;;;6.17;5.57;;;21.60;60.00;;;;;;5033302;28;20504;-76
2022/05/04 13:14:15;;;;;;;5.70;4.90;;;21.60;59.90;;;;;;5030189;28;20511;-76
2022/05/04 13:16:42;;;;;;;4.47;4.10;;;21.60;59.70;;;;;;5025230;28;20476;-76
2022/05/04 13:19:11;;;;;;;7.23;6.53;;;21.60;60.00;;;;;;5033206;28;20472;-78
2022/05/04 13:21:38;;;;;;;6.23;5.63;;;21.60;60.00;;;;;;5034289;28;20502;-78
2022/05/04 13:24:06;;;;;;;5.43;4.80;;;21.60;59.30;;;;;;5029734;28;20957;-78
2022/05/04 13:26:34;;;;;;;6.47;5.33;;;21.60;59.00;;;;;;5035865;28;20487;-78
2022/05/04 13:29:03;;;;;;;5.07;4.60;;;21.60;59.40;;;;;;5021905;28;20552;-78
2022/05/04 13:31:30;;;;;;;5.07;4.43;;;21.70;59.10;;;;;;5036611;28;20557;-77
2022/05/04 13:33:57;;;;;;;7.03;6.30;;;21.70;59.00;;;;;;5035595;28;20980;-76
2022/05/04 13:36:25;;;;;;;6.33;5.60;;;21.70;59.50;;;;;;5032233;28;20864;-76
2022/05/04 13:38:55;;;;;;;7.00;6.40;;;21.60;58.70;;;;;;5035589;28;20471;-76
2022/05/04 13:41:22;;;;;;;5.30;4.90;;;21.60;58.40;;;;;;5035129;28;21048;-76
2022/05/04 13:43:51;;;;;;;5.70;5.30;;;21.60;58.00;;;;;;5034680;28;20475;-78
2022/05/04 13:46:19;;;;;;;5.13;4.63;;;21.60;58.20;;;;;;5033666;28;20530;-77
2022/05/04 13:48:46;;;;;;;8.33;6.43;;;21.60;58.40;;;;;;5034035;28;20542;-77
2022/05/04 13:53:57;;;;;;;5.77;5.37;;;21.60;59.40;;;;;;5034534;28;20986;-77
2022/05/04 13:56:27;;;;;;;5.30;4.80;;;21.60;59.20;;;;;;5035135;28;20456;-77
2022/05/04 13:58:59;;;;;;;6.17;5.73;;;21.60;59.00;;;;;;5022377;28;20831;-77
2022/05/04 14:01:26;;;;;;;6.00;4.40;;;21.60;59.20;;;;;;5033247;28;20467;-78
2022/05/04 14:03:54;;;;;;;5.13;4.73;;;21.60;59.40;;;;;;5035699;28;20479;-78
2022/05/04 14:06:22;;;;;;;7.00;6.40;;;21.60;59.60;;;;;;5035540;28;20505;-78
2022/05/04 14:08:49;;;;;;;7.20;6.13;;;21.50;59.70;;;;;;5034942;28;20470;-78
2022/05/04 14:11:17;;;;;;;8.10;5.57;;;21.60;59.70;;;;;;5033789;28;20530;-78
2022/05/04 14:13:45;;;;;;;5.37;4.97;;;21.50;58.70;;;;;;5034272;28;20529;-78
2022/05/04 14:16:14;;;;;;;6.30;5.20;;;21.50;58.80;;;;;;5032837;28;20475;-78
2022/05/04 14:18:41;;;;;;;5.80;5.23;;;21.50;59.00;;;;;;5034500;28;20503;-78
2022/05/04 14:21:08;;;;;;;5.73;5.20;;;21.50;59.00;;;;;;5028950;28;20480;-78
2022/05/04 14:23:35;;;;;;;5.97;5.37;;;21.50;59.40;;;;;;5034245;28;20958;-78
2022/05/04 14:26:03;;;;;;;4.70;4.40;;;21.50;59.50;;;;;;5034464;28;20476;-77
2022/05/04 14:28:31;;;;;;;6.20;5.70;;;21.50;59.40;;;;;;5034225;28;20460;-78
2022/05/04 14:30:59;;;;;;;4.97;4.50;;;21.60;59.60;;;;;;5034646;28;20482;-78
2022/05/04 14:33:27;;;;;;;5.40;4.90;;;21.50;59.50;;;;;;5033620;28;20489;-77
2022/05/04 14:35:54;;;;;;;4.40;3.97;;;21.60;59.80;;;;;;5034345;28;20968;-78
2022/05/04 14:38:21;;;;;;;6.57;5.97;;;21.60;59.60;;;;;;5033321;28;20486;-77
2022/05/04 14:40:48;;;;;;;5.90;5.43;;;21.50;60.10;;;;;;5034191;28;20551;-77
2022/05/04 14:43:16;;;;;;;10.43;9.53;;;21.50;59.80;;;;;;5023201;28;20539;-78
2022/05/04 14:45:43;;;;;;;9.50;8.50;;;21.40;59.70;;;;;;5020772;28;20468;-78
2022/05/04 14:48:10;;;;;;;10.90;8.23;;;21.40;59.90;;;;;;5033317;28;20464;-78
2022/05/04 14:50:39;;;;;;;7.67;6.97;;;21.40;60.00;;;;;;5033638;28;20488;-78
2022/05/04 14:53:06;;;;;;;6.50;5.90;;;21.40;59.80;;;;;;5033919;28;20475;-78
2022/05/04 14:55:38;;;;;;;7.13;6.53;;;21.40;59.90;;;;;;5033303;28;20506;-78